Groton New London Airport
KGON : now visible

Aeroporto :











RITROVATECI SU...

 
LOGIN :

Iscrizione | Disclaimer

   EN    FR    IT 

 









Sommario :    VFR   VFR Marginale   IFR   IFR Intensivo   IFR Molto Intensivo
Visibilità : 
Base nubi : 
>= 8 km
>= 3000ft
5 / 8 km
1000 / 3000 ft
1500m / 5 km
500 / 1000 ft
800 / 1500m
200 / 500 ft
< 800m
< 200 ft
Simboli :   Temporali  Nebbia  Neve Forte  Precipitazioni Forti  Vento > 20 kt






- Altitudine del aeroporto : 9 ft
- Codice IATA : GON


KGON - Groton New London

ULTIMO METAR :
  • 171656Z 01014KT 10SM OVC041 04/M04 A3031 RMK AO2 SLP264 T00391044

METARs OBSOLETI :
  • 171556Z 01011KT 10SM OVC039 03/M06 A3035 RMK AO2 SLP277 T00281056
  • 171456Z 01011KT 10SM OVC037 02/M06 A3038 RMK AO2 SLP286 T00171061 58009 $

TAF KGON
Valido dal 17 a 15 ore il 18 a 12 ore UTC


171435Z 1715/1812 02013KT 5SM -SN BKN035
FM171600 05015G23KT P6SM BKN035
FM180000 04017G24KT P6SM OVC030
FM180400 03016G24KT P6SM VCSH OVC015
FM181000 02018G26KT 5SM -RA OVC015



MetMap, La meteo Aeronautica in un colpo d'occhio ! - Copyright ORBIFLY Dicembre 2007 - Disclaimer

ORBIFLY MET'MAP TEAM :

Programmazione e sviluppo : Alexandra Zaïnal
Concezione e sviluppo : Baudouin d'Aumeries
Co-Programmazione e sviluppo : Marc-Olivier Méhu
Supporto tecnico e logistico : Manuel Goepfert
Aiuto per la traduzione : Arnaldo La Scala

Contatto : metmap@orbifly.com




FONTI E CREDITI :

   NOAA       Earth
Advisory